createdAt,value
2016-03-14T11:05:09.080Z,1025.41
2016-03-14T11:06:08.833Z,1025.36
2016-03-14T11:07:08.585Z,1025.38
2016-03-14T11:08:08.542Z,1025.4
2016-03-14T11:09:08.513Z,1025.35
2016-03-14T11:10:08.828Z,1025.34
2016-03-14T11:11:08.471Z,1025.35
2016-03-14T11:12:08.661Z,1025.37
2016-03-14T11:13:08.430Z,1025.32
2016-03-14T11:14:08.417Z,1025.34
2016-03-14T11:15:08.436Z,1025.26
2016-03-14T11:16:08.392Z,1025.32
2016-03-14T11:17:08.362Z,1025.3
2016-03-14T11:18:08.334Z,1025.26
2016-03-14T11:19:08.352Z,1025.25
2016-03-14T11:20:08.308Z,1025.19
2016-03-14T11:21:08.295Z,1025.16
2016-03-14T11:22:08.286Z,1025.18
2016-03-14T11:23:08.272Z,1025.24
2016-03-14T11:24:08.258Z,1025.2
2016-03-14T11:25:08.230Z,1025.22
2016-03-14T11:26:08.233Z,1025.23
2016-03-14T11:27:08.267Z,1025.23
2016-03-14T11:28:08.301Z,1025.16
2016-03-14T11:29:08.163Z,1025.15
2016-03-14T11:30:08.322Z,1025.19
2016-03-14T11:31:08.152Z,1025.14
2016-03-14T11:32:08.125Z,1025.13
2016-03-14T11:33:08.112Z,1025.2
2016-03-14T11:34:08.115Z,1025.16
2016-03-14T11:35:08.102Z,1025.1
2016-03-14T11:36:08.088Z,1025.08
2016-03-14T11:37:08.076Z,1025.01
2016-03-14T11:38:08.062Z,1025
2016-03-14T11:39:08.065Z,1024.93
2016-03-14T11:40:08.287Z,1024.99
2016-03-14T11:41:08.023Z,1024.96
2016-03-14T11:45:54.303Z,1024.83
2016-03-14T11:46:54.337Z,1024.87
2016-03-14T11:47:54.261Z,1024.79
2016-03-14T11:49:54.236Z,1024.78
2016-03-14T11:50:54.239Z,1024.79
2016-03-14T11:51:54.225Z,1024.78
2016-03-14T11:53:09.416Z,1024.8
2016-03-14T11:53:54.183Z,1024.78
2016-03-14T11:54:54.382Z,1024.76
2016-03-14T11:55:54.142Z,1024.73
2016-03-14T11:56:54.134Z,1024.67
2016-03-14T11:57:54.111Z,1024.7
2016-03-14T11:58:54.095Z,1024.67
2016-03-14T11:59:54.060Z,1024.68
2016-03-14T12:00:54.059Z,1024.62
2016-03-14T12:01:54.043Z,1024.67
2016-03-14T12:02:54.010Z,1024.63
2016-03-14T12:03:54.009Z,1024.57
2016-03-14T12:04:53.979Z,1024.61
2016-03-14T12:05:53.996Z,1024.6
2016-03-14T12:06:53.967Z,1024.58
2016-03-14T12:07:53.937Z,1024.59
2016-03-14T12:08:53.938Z,1024.62
2016-03-14T12:09:53.909Z,1024.56
2016-03-14T12:10:53.912Z,1024.54
2016-03-14T12:11:53.883Z,1024.51
2016-03-14T12:12:53.870Z,1024.43
2016-03-14T12:13:53.856Z,1024.44
2016-03-14T12:14:53.843Z,1024.45
2016-03-14T12:15:53.845Z,1024.5
2016-03-14T12:16:53.832Z,1024.46
2016-03-14T12:17:53.819Z,1024.48
2016-03-14T12:18:53.789Z,1024.46
2016-03-14T12:19:53.792Z,1024.4
2016-03-14T12:20:53.810Z,1024.44
2016-03-14T12:21:53.751Z,1024.41
2016-03-14T12:22:53.753Z,1024.4
2016-03-14T12:23:53.741Z,1024.42
2016-03-14T12:24:53.712Z,1024.44
2016-03-14T12:25:53.887Z,1024.39
2016-03-14T12:26:53.701Z,1024.38
2016-03-14T12:27:53.688Z,1024.39
2016-03-14T12:28:53.675Z,1024.42
2016-03-14T12:29:53.710Z,1024.39
2016-03-14T12:30:53.635Z,1024.42
2016-03-14T12:31:53.606Z,1024.4
2016-03-14T12:32:53.609Z,1024.39
2016-03-14T12:39:26.206Z,1024.15
2016-03-14T12:40:26.193Z,1024.18
2016-03-14T12:41:26.180Z,1024.15
2016-03-14T12:42:26.151Z,1024.11
2016-03-14T12:43:26.153Z,1024.14
2016-03-14T12:44:26.125Z,1024.09
2016-03-14T12:45:26.111Z,1024.07
2016-03-14T12:46:26.114Z,1024.08
2016-03-14T12:47:26.086Z,1024.12
2016-03-14T12:48:26.088Z,1024.1
2016-03-14T12:49:26.076Z,1024.09
2016-03-14T12:50:26.047Z,1024.08
2016-03-14T12:51:26.035Z,1024.03
2016-03-14T12:52:26.021Z,1024.03
2016-03-14T12:53:26.009Z,1024.02
2016-03-14T12:54:26.027Z,1024.08
2016-03-14T12:55:25.982Z,1024.03
2016-03-14T12:56:25.955Z,1024
2016-03-14T12:57:25.957Z,1024.01
2016-03-14T12:58:25.944Z,1024
2016-03-14T12:59:25.931Z,1024.03
2016-03-14T13:00:25.949Z,1024
2016-03-14T13:01:25.889Z,1023.97
2016-03-14T13:02:25.892Z,1023.98
2016-03-14T13:03:25.864Z,1023.96
2016-03-14T13:04:25.850Z,1023.95
2016-03-14T13:05:25.853Z,1023.95
2016-03-14T13:06:26.075Z,1023.88
2016-03-14T13:07:25.811Z,1023.86
2016-03-14T13:08:25.815Z,1023.95
2016-03-14T13:09:25.958Z,1023.89
2016-03-14T13:10:25.789Z,1023.9
2016-03-14T13:11:25.761Z,1023.92
2016-03-14T13:12:25.763Z,1023.9
2016-03-14T13:13:25.719Z,1023.85
2016-03-14T13:14:25.721Z,1023.84
2016-03-14T13:15:25.755Z,1023.83
2016-03-14T13:16:25.680Z,1023.77
2016-03-14T13:17:25.683Z,1023.75
2016-03-14T13:18:25.669Z,1023.72
2016-03-14T13:19:25.657Z,1023.7
2016-03-14T13:20:25.643Z,1023.68
2016-03-14T13:21:25.615Z,1023.66
2016-03-14T13:22:25.602Z,1023.65
2016-03-14T13:23:25.635Z,1023.67
2016-03-14T13:24:25.592Z,1023.68
2016-03-14T13:25:25.563Z,1023.62
2016-03-14T13:26:25.566Z,1023.66
2016-03-14T13:27:25.537Z,1023.65
2016-03-14T13:29:25.512Z,1023.63
2016-03-14T13:30:25.498Z,1023.61
2016-03-14T13:31:25.501Z,1023.65
2016-03-14T13:32:25.488Z,1023.64
2016-03-14T13:33:25.570Z,1023.61
2016-03-14T13:34:25.448Z,1023.62
2016-03-14T13:35:25.434Z,1023.54
2016-03-14T13:36:25.468Z,1023.56
2016-03-14T13:37:25.423Z,1023.53
2016-03-14T13:38:25.411Z,1023.55
2016-03-14T13:39:25.382Z,1023.55
2016-03-14T13:40:25.384Z,1023.54
2016-03-14T13:41:25.357Z,1023.54
2016-03-14T13:42:25.328Z,1023.53
2016-03-14T13:43:25.331Z,1023.54
2016-03-14T13:44:25.364Z,1023.58
2016-03-14T13:45:25.305Z,1023.55
2016-03-14T13:46:25.276Z,1023.56
2016-03-14T13:47:25.310Z,1023.57
2016-03-14T13:48:25.266Z,1023.55
2016-03-14T13:49:25.269Z,1023.58
2016-03-14T13:50:25.241Z,1023.6
2016-03-14T13:51:25.336Z,1023.55
2016-03-14T13:52:25.214Z,1023.56
2016-03-14T13:53:25.201Z,1023.52
2016-03-14T13:54:25.189Z,1023.62
2016-03-14T13:55:25.285Z,1023.56
2016-03-14T13:56:25.162Z,1023.59
2016-03-14T13:57:25.149Z,1023.59
2016-03-14T13:58:25.199Z,1023.55
2016-03-14T13:59:25.140Z,1023.57
2016-03-14T14:00:25.110Z,1023.59
2016-03-14T14:01:25.082Z,1023.49
2016-03-14T14:02:25.115Z,1023.5
2016-03-14T14:04:25.121Z,1023.54
2016-03-14T14:05:25.031Z,1023.51
2016-03-14T14:06:25.038Z,1023.5
2016-03-14T14:07:25.025Z,1023.54
2016-03-14T14:08:24.980Z,1023.52
2016-03-14T14:09:25.092Z,1023.55
2016-03-14T14:10:25.283Z,1023.49
2016-03-14T14:11:24.942Z,1023.4
2016-03-14T14:12:24.945Z,1023.46
2016-03-14T14:13:24.932Z,1023.49
2016-03-14T14:14:24.934Z,1023.44
2016-03-14T14:15:24.891Z,1023.41
2016-03-14T14:16:24.893Z,1023.35
2016-03-14T14:17:24.864Z,1023.47
2016-03-14T14:18:24.852Z,1023.35
2016-03-14T14:19:24.838Z,1023.32
2016-03-14T14:20:24.825Z,1023.35
2016-03-14T14:21:24.813Z,1023.31
2016-03-14T14:22:24.816Z,1023.26
2016-03-14T14:23:24.833Z,1023.3
2016-03-14T14:24:24.774Z,1023.24
2016-03-14T14:25:25.011Z,1023.25
2016-03-14T14:26:25.107Z,1023.25
2016-03-14T14:27:24.735Z,1023.27
2016-03-14T14:28:24.721Z,1023.28
2016-03-14T14:29:24.709Z,1023.28
2016-03-14T14:30:24.681Z,1023.25
2016-03-14T14:31:24.684Z,1023.28
2016-03-14T14:32:24.655Z,1023.26
2016-03-14T14:33:24.657Z,1023.23
2016-03-14T14:34:24.973Z,1023.22
2016-03-14T14:35:24.615Z,1023.12
2016-03-14T14:36:24.618Z,1023.11
2016-03-14T14:37:24.606Z,1023.14
2016-03-14T14:38:24.734Z,1023.11
2016-03-14T14:39:24.627Z,1023.05
2016-03-14T14:40:24.770Z,1023.11
2016-03-14T14:41:24.539Z,1023.13
2016-03-14T14:42:25.134Z,1023.12
2016-03-14T14:43:24.512Z,1023.1
2016-03-14T14:44:24.515Z,1023.02
2016-03-14T14:45:24.486Z,1023.04
2016-03-14T14:46:24.458Z,1023.1
2016-03-14T14:47:24.507Z,1023.04
2016-03-14T14:48:27.464Z,1023.07
2016-03-14T14:49:24.419Z,1022.99
2016-03-14T14:50:24.406Z,1022.93
2016-03-14T14:51:24.394Z,1022.93
2016-03-14T14:52:24.583Z,1022.91
2016-03-14T14:53:24.368Z,1022.92
2016-03-14T14:54:24.371Z,1022.93
2016-03-14T14:55:24.341Z,1022.88
2016-03-14T14:56:24.594Z,1022.91
2016-03-14T14:57:24.315Z,1022.86
2016-03-14T14:58:24.287Z,1022.84
2016-03-14T14:59:24.290Z,1022.8
2016-03-14T15:00:24.277Z,1022.8
2016-03-14T15:01:24.858Z,1022.75
2016-03-14T15:02:24.251Z,1022.73
2016-03-14T15:03:24.222Z,1022.79
2016-03-14T15:04:24.210Z,1022.7
2016-03-14T15:05:24.196Z,1022.67
2016-03-14T15:06:24.246Z,1022.65
2016-03-14T15:07:24.170Z,1022.66
2016-03-14T15:08:24.158Z,1022.64
2016-03-14T15:09:24.145Z,1022.62
2016-03-14T15:10:24.132Z,1022.58
2016-03-14T15:11:24.212Z,1022.58
2016-03-14T15:12:24.372Z,1022.56
2016-03-14T15:13:24.109Z,1022.55
2016-03-14T15:14:24.095Z,1022.57
2016-03-14T15:15:24.083Z,1022.56
2016-03-14T15:16:24.055Z,1022.5
2016-03-14T15:17:24.041Z,1022.5
2016-03-14T15:18:24.028Z,1022.48
2016-03-14T15:19:24.094Z,1022.45
2016-03-14T15:20:24.018Z,1022.48
2016-03-14T15:21:24.005Z,1022.48
2016-03-14T15:22:23.958Z,1022.47
2016-03-14T15:23:23.979Z,1022.47
2016-03-14T15:24:23.963Z,1022.5
2016-03-14T15:25:23.951Z,1022.44
2016-03-14T15:26:23.922Z,1022.5
2016-03-14T15:27:23.910Z,1022.48
2016-03-14T15:28:23.896Z,1022.4
2016-03-14T15:29:23.868Z,1022.45
2016-03-14T15:30:23.870Z,1022.42
2016-03-14T15:31:23.843Z,1022.39
2016-03-14T15:32:23.829Z,1022.41
2016-03-14T15:33:23.816Z,1022.41
2016-03-14T15:34:23.819Z,1022.38
2016-03-14T15:35:23.806Z,1022.37
2016-03-14T15:36:23.809Z,1022.34
2016-03-14T15:37:23.765Z,1022.37
2016-03-14T15:38:23.751Z,1022.33
2016-03-14T15:39:23.739Z,1022.33
2016-03-14T15:40:23.756Z,1022.36
2016-03-14T15:41:23.712Z,1022.37
2016-03-14T15:42:23.715Z,1022.35
2016-03-14T15:43:23.843Z,1022.37
2016-03-14T15:44:23.737Z,1022.37
2016-03-14T15:45:23.723Z,1022.34
2016-03-14T15:46:23.742Z,1022.35
2016-03-14T15:47:23.697Z,1022.35
2016-03-14T15:48:23.763Z,1022.34
2016-03-14T15:49:23.677Z,1022.34
2016-03-14T15:50:23.664Z,1022.32
2016-03-14T15:51:23.745Z,1022.35
2016-03-14T15:52:23.669Z,1022.31
2016-03-14T15:53:23.797Z,1022.34
2016-03-14T15:54:23.644Z,1022.33
2016-03-14T15:55:23.646Z,1022.33
2016-03-14T15:56:23.632Z,1022.32
2016-03-14T15:57:23.527Z,1022.33
2016-03-14T15:58:23.529Z,1022.35
2016-03-14T16:00:23.549Z,1022.36
2016-03-14T16:01:23.553Z,1022.35
2016-03-14T16:02:23.774Z,1022.38
2016-03-14T16:03:23.590Z,1022.4
2016-03-14T16:04:23.810Z,1022.36
2016-03-14T16:05:23.595Z,1022.39
2016-03-14T16:06:23.441Z,1022.39
2016-03-14T16:07:23.428Z,1022.38
2016-03-14T16:08:23.446Z,1022.38
2016-03-14T16:09:23.590Z,1022.37
2016-03-14T16:10:23.531Z,1022.39
2016-03-14T16:11:23.329Z,1022.39
2016-03-14T16:12:23.317Z,1022.41
2016-03-14T16:13:23.303Z,1022.36
2016-03-14T16:14:23.307Z,1022.39
2016-03-14T16:15:23.278Z,1022.43
2016-03-14T16:16:23.265Z,1022.43
2016-03-14T16:17:23.283Z,1022.43
2016-03-14T16:18:23.255Z,1022.4
2016-03-14T16:19:23.225Z,1022.37
2016-03-14T16:21:23.185Z,1022.3
2016-03-14T16:22:23.172Z,1022.28
2016-03-14T16:23:23.175Z,1022.31
2016-03-14T16:24:23.193Z,1022.32
2016-03-14T16:25:23.430Z,1022.35
2016-03-14T16:26:23.386Z,1022.38
2016-03-14T16:27:23.107Z,1022.39
2016-03-14T16:28:23.313Z,1022.36
2016-03-14T16:29:23.081Z,1022.4
2016-03-14T16:30:23.068Z,1022.35
2016-03-14T16:31:23.040Z,1022.34
2016-03-14T16:32:23.027Z,1022.37
2016-03-14T16:33:23.018Z,1022.41
2016-03-14T16:34:23.021Z,1022.41
2016-03-14T16:35:23.009Z,1022.44
2016-03-14T16:36:22.979Z,1022.44
2016-03-14T16:37:23.201Z,1022.42
2016-03-14T16:38:22.954Z,1022.38
2016-03-14T16:39:22.942Z,1022.35
2016-03-14T16:40:22.928Z,1022.34
2016-03-14T16:41:22.915Z,1022.34
2016-03-14T16:42:22.886Z,1022.33
2016-03-14T16:43:22.889Z,1022.36
2016-03-14T16:44:23.470Z,1022.32
2016-03-14T16:45:23.426Z,1022.33
2016-03-14T16:46:22.835Z,1022.32
2016-03-14T16:47:22.822Z,1022.33
2016-03-14T16:48:22.809Z,1022.35
2016-03-14T16:49:22.811Z,1022.33
2016-03-14T16:50:22.783Z,1022.37
2016-03-14T16:51:22.770Z,1022.35
2016-03-14T16:52:22.757Z,1022.38
2016-03-14T16:53:22.744Z,1022.37
2016-03-14T16:54:22.716Z,1022.39
2016-03-14T16:55:22.702Z,1022.42
2016-03-14T16:56:22.690Z,1022.43
2016-03-14T16:57:22.677Z,1022.4
2016-03-14T16:58:22.663Z,1022.41
2016-03-14T16:59:22.636Z,1022.39
2016-03-14T17:00:22.654Z,1022.38
2016-03-14T17:01:22.627Z,1022.36
2016-03-14T17:02:22.863Z,1022.37
2016-03-14T17:03:22.600Z,1022.37
2016-03-14T17:04:22.603Z,1022.37
2016-03-14T17:05:22.575Z,1022.39
2016-03-14T17:06:22.547Z,1022.38
2016-03-14T17:07:22.518Z,1022.39
2016-03-14T17:08:22.537Z,1022.38
2016-03-14T17:09:22.523Z,1022.37
2016-03-14T17:10:22.495Z,1022.4
2016-03-14T17:11:22.467Z,1022.38
2016-03-14T17:12:22.657Z,1022.37
2016-03-14T17:13:22.441Z,1022.38
2016-03-14T17:14:22.678Z,1022.4
2016-03-14T17:15:22.415Z,1022.39
2016-03-14T17:16:22.403Z,1022.41
2016-03-14T17:17:22.421Z,1022.41
2016-03-14T17:18:22.596Z,1022.4
2016-03-14T17:19:22.443Z,1022.39
2016-03-14T17:20:22.351Z,1022.4
2016-03-14T17:21:22.323Z,1022.37
2016-03-14T17:22:22.575Z,1022.41
2016-03-14T17:23:22.297Z,1022.36
2016-03-14T17:24:22.362Z,1022.41
2016-03-14T17:25:22.272Z,1022.38
2016-03-14T17:26:22.258Z,1022.36
2016-03-14T17:27:22.245Z,1022.35
2016-03-14T17:28:22.217Z,1022.38
2016-03-14T17:29:22.297Z,1022.4
2016-03-14T17:30:22.175Z,1022.4
2016-03-14T17:31:22.163Z,1022.42
2016-03-14T17:32:22.149Z,1022.41
2016-03-14T17:33:22.136Z,1022.41
2016-03-14T17:34:22.124Z,1022.35
2016-03-14T17:35:22.095Z,1022.37
2016-03-14T17:36:22.145Z,1022.34
2016-03-14T17:37:22.132Z,1022.36
2016-03-14T17:38:22.072Z,1022.35
2016-03-14T17:39:22.044Z,1022.33
2016-03-14T17:40:22.031Z,1022.37
2016-03-14T17:41:22.002Z,1022.36
2016-03-14T17:42:21.989Z,1022.33
2016-03-14T17:43:22.211Z,1022.39
2016-03-14T17:44:21.963Z,1022.39
2016-03-14T17:45:21.935Z,1022.37
2016-03-14T17:46:21.938Z,1022.38
2016-03-14T17:47:21.924Z,1022.39
2016-03-14T17:48:21.912Z,1022.36
2016-03-14T17:49:21.883Z,1022.36
2016-03-14T17:50:21.871Z,1022.33
2016-03-14T17:51:21.873Z,1022.34
2016-03-14T17:52:21.845Z,1022.34
2016-03-14T17:53:21.831Z,1022.31
2016-03-14T17:54:21.803Z,1022.31
2016-03-14T17:55:21.821Z,1022.34
2016-03-14T17:56:21.761Z,1022.33
2016-03-14T17:57:21.780Z,1022.33
2016-03-14T17:58:21.751Z,1022.34
2016-03-14T17:59:21.739Z,1022.37
2016-03-14T18:00:21.710Z,1022.31
2016-03-14T18:01:21.697Z,1022.35
2016-03-14T18:02:21.700Z,1022.37
2016-03-14T18:03:21.656Z,1022.32
2016-03-14T18:04:21.658Z,1022.31
2016-03-14T18:05:21.645Z,1022.33
2016-03-14T18:06:21.617Z,1022.31
2016-03-14T18:07:21.744Z,1022.31
2016-03-14T18:08:21.591Z,1022.32
2016-03-14T18:09:21.766Z,1022.36
2016-03-14T18:10:21.564Z,1022.29
2016-03-14T18:11:21.536Z,1022.31
2016-03-14T18:12:21.664Z,1022.34
2016-03-14T18:13:21.588Z,1022.32
2016-03-14T18:14:21.544Z,1022.3
2016-03-14T18:15:21.468Z,1022.3
2016-03-14T18:16:21.471Z,1022.31
2016-03-14T18:17:21.459Z,1022.27
2016-03-14T18:18:21.415Z,1022.3
2016-03-14T18:19:21.432Z,1022.31
2016-03-14T18:20:21.388Z,1022.31
2016-03-14T18:21:21.391Z,1022.29
2016-03-14T18:22:21.362Z,1022.3
2016-03-14T18:23:21.349Z,1022.29
2016-03-14T18:24:21.337Z,1022.28
2016-03-14T18:26:21.295Z,1022.25
2016-03-14T18:27:21.282Z,1022.28
2016-03-14T18:28:21.301Z,1022.25
2016-03-14T18:29:21.257Z,1022.27
2016-03-14T18:30:21.229Z,1022.24
2016-03-14T18:31:21.262Z,1022.29
2016-03-14T18:32:21.203Z,1022.26
2016-03-14T18:33:21.251Z,1022.24
2016-03-14T18:34:21.161Z,1022.22
2016-03-14T18:35:21.179Z,1022.21
2016-03-14T18:36:21.135Z,1022.18
2016-03-14T18:37:21.122Z,1022.15
2016-03-14T18:38:21.094Z,1022.16
2016-03-14T18:39:21.081Z,1022.14
2016-03-14T18:40:21.067Z,1022.12
2016-03-14T18:41:21.055Z,1022.08
2016-03-14T18:42:21.041Z,1022.1
2016-03-14T18:43:21.028Z,1022.07
2016-03-14T18:44:21.203Z,1022.04
2016-03-14T18:45:20.971Z,1022.01
2016-03-14T18:46:20.974Z,1022.03
2016-03-14T18:47:20.977Z,1022
2016-03-14T18:48:21.027Z,1022.01
2016-03-14T18:49:20.952Z,1022
2016-03-14T18:50:20.892Z,1021.99
2016-03-14T18:51:20.894Z,1022.01
2016-03-14T18:52:20.897Z,1022.02
2016-03-14T18:53:20.852Z,1022.02
2016-03-14T18:54:20.824Z,1022
2016-03-14T18:55:20.811Z,1021.99
2016-03-14T18:56:20.799Z,1021.99
2016-03-14T18:57:20.785Z,1022.03
2016-03-14T18:58:21.100Z,1022.02
2016-03-14T18:59:20.760Z,1022.02
2016-03-14T19:00:20.746Z,1022.03
2016-03-14T19:01:20.718Z,1022.04
2016-03-14T19:02:20.704Z,1021.99
2016-03-14T19:03:20.676Z,1022
2016-03-14T19:04:20.664Z,1021.98
2016-03-14T19:05:20.650Z,1021.97
2016-03-14T19:06:20.748Z,1021.96
2016-03-14T19:07:20.609Z,1021.97
2016-03-14T19:08:20.596Z,1021.97
2016-03-14T19:09:20.583Z,1021.92
2016-03-14T19:10:20.570Z,1021.94
2016-03-14T19:11:20.541Z,1021.93
2016-03-14T19:12:20.544Z,1021.92
2016-03-14T19:13:20.532Z,1021.92
2016-03-14T19:14:20.487Z,1021.87
2016-03-14T19:15:20.475Z,1021.9
2016-03-14T19:16:20.461Z,1021.88
2016-03-14T19:17:20.449Z,1021.83
2016-03-14T19:18:20.420Z,1021.84
2016-03-14T19:19:20.408Z,1021.81
2016-03-14T19:20:20.394Z,1021.82
2016-03-14T19:21:20.475Z,1021.83
2016-03-14T19:22:20.352Z,1021.8
2016-03-14T19:23:20.340Z,1021.78
2016-03-14T19:24:20.311Z,1021.78
2016-03-14T19:25:20.313Z,1021.81
2016-03-14T19:26:20.801Z,1021.75
2016-03-14T19:27:20.260Z,1021.72
2016-03-14T19:28:20.249Z,1021.72
2016-03-14T19:29:20.245Z,1021.7
2016-03-14T19:30:20.284Z,1021.7
2016-03-14T19:31:20.197Z,1021.71
2016-03-14T19:32:20.184Z,1021.67
2016-03-14T19:33:20.170Z,1021.68
2016-03-14T19:34:20.142Z,1021.66
2016-03-14T19:35:20.129Z,1021.68
2016-03-14T19:36:20.242Z,1021.66
2016-03-14T19:37:20.089Z,1021.7
2016-03-14T19:39:20.062Z,1021.66
2016-03-14T19:40:20.049Z,1021.65
2016-03-14T19:41:20.036Z,1021.64
2016-03-14T19:42:20.008Z,1021.62
2016-03-14T19:43:19.980Z,1021.66
2016-03-14T19:44:19.966Z,1021.66
2016-03-14T19:45:19.969Z,1021.64
2016-03-14T19:46:19.940Z,1021.66
2016-03-14T19:47:19.927Z,1021.63
2016-03-14T19:48:19.914Z,1021.65
2016-03-14T19:49:19.902Z,1021.61
2016-03-14T19:51:19.860Z,1021.65
2016-03-14T19:52:19.863Z,1021.63
2016-03-14T19:53:19.835Z,1021.64
2016-03-14T19:54:19.791Z,1021.68
2016-03-14T19:55:19.808Z,1021.65
2016-03-14T19:56:19.779Z,1021.65
2016-03-14T19:57:19.751Z,1021.66
2016-03-14T19:58:19.754Z,1021.63
2016-03-14T19:59:19.725Z,1021.63
2016-03-14T20:00:20.025Z,1021.64
2016-03-14T20:01:19.668Z,1021.61
2016-03-14T20:02:19.874Z,1021.58
2016-03-14T20:03:19.658Z,1021.59
2016-03-14T20:04:19.629Z,1021.6
2016-03-14T20:05:19.632Z,1021.6
2016-03-14T20:06:19.587Z,1021.61
2016-03-14T20:07:19.590Z,1021.6
2016-03-14T20:08:19.608Z,1021.6
2016-03-14T20:09:19.549Z,1021.53
2016-03-14T20:10:19.520Z,1021.51
2016-03-14T20:11:19.508Z,1021.53
2016-03-14T20:12:19.511Z,1021.53
2016-03-14T20:13:19.482Z,1021.53
2016-03-14T20:14:19.453Z,1021.51
2016-03-14T20:15:19.441Z,1021.49
2016-03-14T20:16:19.427Z,1021.5
2016-03-14T20:17:19.399Z,1021.53
2016-03-14T20:18:19.386Z,1021.53
2016-03-14T20:19:19.372Z,1021.5
2016-03-14T20:20:19.360Z,1021.51
2016-03-14T20:21:19.346Z,1021.48
2016-03-14T20:22:19.319Z,1021.46
2016-03-14T20:23:19.540Z,1021.47
2016-03-14T20:24:19.277Z,1021.46
2016-03-14T20:25:19.295Z,1021.49
2016-03-14T20:26:19.235Z,1021.48
2016-03-14T20:27:19.285Z,1021.46
2016-03-14T20:28:19.193Z,1021.48
2016-03-14T20:29:19.197Z,1021.49
2016-03-14T20:30:19.184Z,1021.46
2016-03-14T20:31:19.201Z,1021.47
2016-03-14T20:32:19.173Z,1021.5
2016-03-14T20:33:19.129Z,1021.48
2016-03-14T20:34:19.101Z,1021.5
2016-03-14T20:35:19.087Z,1021.53
2016-03-14T20:36:19.075Z,1021.5
2016-03-14T20:37:19.062Z,1021.5
2016-03-14T20:38:19.034Z,1021.48
2016-03-14T20:39:19.005Z,1021.44
2016-03-14T20:40:18.992Z,1021.43
2016-03-14T20:41:18.979Z,1021.44
2016-03-14T20:42:18.967Z,1021.42
2016-03-14T20:43:19.172Z,1021.45
2016-03-14T20:44:18.955Z,1021.45
2016-03-14T20:45:19.319Z,1021.48
2016-03-14T20:46:18.915Z,1021.46
2016-03-14T20:47:18.887Z,1021.45
2016-03-14T20:48:18.920Z,1021.45
2016-03-14T20:49:18.830Z,1021.43
2016-03-14T20:50:18.832Z,1021.4
2016-03-14T20:51:18.819Z,1021.42
2016-03-14T20:52:18.947Z,1021.41
2016-03-14T20:53:18.778Z,1021.38
2016-03-14T20:54:18.842Z,1021.41
2016-03-14T20:55:18.767Z,1021.43
2016-03-14T20:56:18.723Z,1021.45
2016-03-14T20:57:18.694Z,1021.48
2016-03-14T20:58:18.681Z,1021.47
2016-03-14T20:59:18.653Z,1021.48
2016-03-14T21:00:18.640Z,1021.47
2016-03-14T21:01:18.784Z,1021.48
2016-03-14T21:02:18.585Z,1021.46
2016-03-14T21:03:18.542Z,1021.48
2016-03-14T21:04:18.531Z,1021.43
2016-03-14T21:05:18.474Z,1021.48
2016-03-14T21:06:18.708Z,1021.46
2016-03-14T21:07:18.751Z,1021.45
2016-03-14T21:08:18.420Z,1021.47
2016-03-14T21:09:18.403Z,1021.48
2016-03-14T21:10:18.385Z,1021.44
2016-03-14T21:11:18.370Z,1021.42
2016-03-14T21:12:18.341Z,1021.42
2016-03-14T21:13:18.327Z,1021.43
2016-03-14T21:14:18.281Z,1021.43
2016-03-14T21:15:18.297Z,1021.43
2016-03-14T21:16:18.268Z,1021.48
2016-03-14T21:17:18.240Z,1021.45
2016-03-14T21:18:18.225Z,1021.44
2016-03-14T21:19:18.227Z,1021.45
2016-03-14T21:20:18.182Z,1021.44
2016-03-14T21:21:18.169Z,1021.43
2016-03-14T21:22:18.156Z,1021.42
2016-03-14T21:23:18.128Z,1021.41
2016-03-14T21:24:18.162Z,1021.42
2016-03-14T21:25:18.103Z,1021.4
2016-03-14T21:26:18.090Z,1021.37
2016-03-14T21:27:18.108Z,1021.43
2016-03-14T21:28:18.048Z,1021.44
2016-03-14T21:29:18.004Z,1021.42
